sensor_id;sensor_type;location;lat;lon;timestamp;P1;durP1;ratioP1;P2;durP2;ratioP2
74793;SDS011;63320;50.768;6.724;2023-04-15T00:01:46;9.27;;;3.67;;
74793;SDS011;63320;50.768;6.724;2023-04-15T00:04:11;10.00;;;3.42;;
74793;SDS011;63320;50.768;6.724;2023-04-15T00:06:37;9.40;;;3.55;;
74793;SDS011;63320;50.768;6.724;2023-04-15T00:09:02;9.98;;;3.28;;
74793;SDS011;63320;50.768;6.724;2023-04-15T00:11:29;8.45;;;3.58;;
74793;SDS011;63320;50.768;6.724;2023-04-15T00:13:54;8.60;;;3.47;;
74793;SDS011;63320;50.768;6.724;2023-04-15T00:16:19;8.07;;;2.63;;
74793;SDS011;63320;50.768;6.724;2023-04-15T00:18:45;7.40;;;3.00;;
74793;SDS011;63320;50.768;6.724;2023-04-15T00:21:10;8.45;;;2.90;;
74793;SDS011;63320;50.768;6.724;2023-04-15T00:23:35;9.45;;;3.10;;
74793;SDS011;63320;50.768;6.724;2023-04-15T00:26:01;10.15;;;3.60;;
74793;SDS011;63320;50.768;6.724;2023-04-15T00:28:27;10.13;;;3.75;;
74793;SDS011;63320;50.768;6.724;2023-04-15T00:30:53;9.50;;;3.33;;
74793;SDS011;63320;50.768;6.724;2023-04-15T00:33:18;9.50;;;2.97;;
74793;SDS011;63320;50.768;6.724;2023-04-15T00:35:43;7.35;;;2.70;;
74793;SDS011;63320;50.768;6.724;2023-04-15T00:38:09;5.80;;;2.50;;
74793;SDS011;63320;50.768;6.724;2023-04-15T00:40:35;8.77;;;2.65;;
74793;SDS011;63320;50.768;6.724;2023-04-15T00:43:00;7.40;;;2.80;;
74793;SDS011;63320;50.768;6.724;2023-04-15T00:45:27;7.45;;;2.45;;
74793;SDS011;63320;50.768;6.724;2023-04-15T00:47:53;9.68;;;3.33;;
74793;SDS011;63320;50.768;6.724;2023-04-15T00:50:18;9.60;;;3.50;;
74793;SDS011;63320;50.768;6.724;2023-04-15T00:52:43;7.53;;;3.00;;
74793;SDS011;63320;50.768;6.724;2023-04-15T00:55:09;6.80;;;2.63;;
74793;SDS011;63320;50.768;6.724;2023-04-15T00:57:34;6.85;;;2.58;;
74793;SDS011;63320;50.768;6.724;2023-04-15T01:00:00;6.78;;;2.53;;
74793;SDS011;63320;50.768;6.724;2023-04-15T01:02:27;9.93;;;2.60;;
74793;SDS011;63320;50.768;6.724;2023-04-15T01:04:52;5.88;;;2.25;;
74793;SDS011;63320;50.768;6.724;2023-04-15T01:07:18;7.40;;;2.50;;
74793;SDS011;63320;50.768;6.724;2023-04-15T01:09:43;5.90;;;2.38;;
74793;SDS011;63320;50.768;6.724;2023-04-15T01:12:09;6.50;;;2.50;;
74793;SDS011;63320;50.768;6.724;2023-04-15T01:14:36;6.72;;;2.50;;
74793;SDS011;63320;50.768;6.724;2023-04-15T01:17:02;6.88;;;2.63;;
74793;SDS011;63320;50.768;6.724;2023-04-15T01:19:29;7.53;;;2.60;;
74793;SDS011;63320;50.768;6.724;2023-04-15T01:21:54;6.80;;;2.55;;
74793;SDS011;63320;50.768;6.724;2023-04-15T01:24:20;5.53;;;2.60;;
74793;SDS011;63320;50.768;6.724;2023-04-15T01:26:49;7.10;;;2.50;;
74793;SDS011;63320;50.768;6.724;2023-04-15T01:29:14;6.75;;;2.63;;
74793;SDS011;63320;50.768;6.724;2023-04-15T01:31:40;5.60;;;2.40;;
74793;SDS011;63320;50.768;6.724;2023-04-15T01:34:05;6.38;;;2.60;;
74793;SDS011;63320;50.768;6.724;2023-04-15T01:36:30;9.32;;;2.75;;
74793;SDS011;63320;50.768;6.724;2023-04-15T01:38:56;5.32;;;2.20;;
74793;SDS011;63320;50.768;6.724;2023-04-15T01:41:24;5.93;;;2.70;;
74793;SDS011;63320;50.768;6.724;2023-04-15T01:43:51;7.90;;;2.70;;
74793;SDS011;63320;50.768;6.724;2023-04-15T01:46:16;7.03;;;2.53;;
74793;SDS011;63320;50.768;6.724;2023-04-15T01:48:42;7.55;;;2.78;;
74793;SDS011;63320;50.768;6.724;2023-04-15T01:51:07;7.72;;;2.55;;
74793;SDS011;63320;50.768;6.724;2023-04-15T01:53:32;8.02;;;2.30;;
74793;SDS011;63320;50.768;6.724;2023-04-15T01:55:58;6.80;;;2.50;;
74793;SDS011;63320;50.768;6.724;2023-04-15T01:58:23;5.50;;;2.00;;
74793;SDS011;63320;50.768;6.724;2023-04-15T02:00:50;8.70;;;2.33;;
74793;SDS011;63320;50.768;6.724;2023-04-15T02:03:15;6.55;;;2.13;;
74793;SDS011;63320;50.768;6.724;2023-04-15T02:05:41;7.10;;;2.13;;
74793;SDS011;63320;50.768;6.724;2023-04-15T02:08:06;7.47;;;1.98;;
74793;SDS011;63320;50.768;6.724;2023-04-15T02:10:31;4.65;;;2.08;;
74793;SDS011;63320;50.768;6.724;2023-04-15T02:12:57;6.60;;;2.00;;
74793;SDS011;63320;50.768;6.724;2023-04-15T02:15:22;8.95;;;2.28;;
74793;SDS011;63320;50.768;6.724;2023-04-15T02:17:49;6.15;;;1.90;;
74793;SDS011;63320;50.768;6.724;2023-04-15T02:20:14;6.15;;;1.83;;
74793;SDS011;63320;50.768;6.724;2023-04-15T02:22:39;7.18;;;1.83;;
74793;SDS011;63320;50.768;6.724;2023-04-15T02:25:05;6.72;;;2.10;;
74793;SDS011;63320;50.768;6.724;2023-04-15T02:27:31;9.00;;;2.08;;
74793;SDS011;63320;50.768;6.724;2023-04-15T02:29:57;5.60;;;2.30;;
74793;SDS011;63320;50.768;6.724;2023-04-15T02:32:22;6.47;;;2.10;;
74793;SDS011;63320;50.768;6.724;2023-04-15T02:34:49;7.57;;;2.05;;
74793;SDS011;63320;50.768;6.724;2023-04-15T02:37:14;8.63;;;2.20;;
74793;SDS011;63320;50.768;6.724;2023-04-15T02:39:39;5.25;;;1.92;;
74793;SDS011;63320;50.768;6.724;2023-04-15T02:42:05;7.43;;;2.55;;
74793;SDS011;63320;50.768;6.724;2023-04-15T02:44:30;6.57;;;2.60;;
74793;SDS011;63320;50.768;6.724;2023-04-15T02:46:55;6.53;;;2.28;;
74793;SDS011;63320;50.768;6.724;2023-04-15T02:49:21;6.43;;;2.17;;
74793;SDS011;63320;50.768;6.724;2023-04-15T02:51:47;5.75;;;1.98;;
74793;SDS011;63320;50.768;6.724;2023-04-15T02:54:13;6.15;;;1.98;;
74793;SDS011;63320;50.768;6.724;2023-04-15T02:56:38;6.80;;;2.42;;
74793;SDS011;63320;50.768;6.724;2023-04-15T02:59:03;6.28;;;2.00;;
74793;SDS011;63320;50.768;6.724;2023-04-15T03:01:29;6.00;;;2.60;;
74793;SDS011;63320;50.768;6.724;2023-04-15T03:03:54;6.03;;;2.25;;
74793;SDS011;63320;50.768;6.724;2023-04-15T03:06:19;7.75;;;2.63;;
74793;SDS011;63320;50.768;6.724;2023-04-15T03:08:46;7.80;;;2.13;;
74793;SDS011;63320;50.768;6.724;2023-04-15T03:11:11;7.43;;;2.40;;
74793;SDS011;63320;50.768;6.724;2023-04-15T03:13:37;5.57;;;1.90;;
74793;SDS011;63320;50.768;6.724;2023-04-15T03:16:02;4.90;;;2.08;;
74793;SDS011;63320;50.768;6.724;2023-04-15T03:18:28;5.57;;;2.10;;
74793;SDS011;63320;50.768;6.724;2023-04-15T03:20:53;4.97;;;2.00;;
74793;SDS011;63320;50.768;6.724;2023-04-15T03:23:19;5.30;;;1.90;;
74793;SDS011;63320;50.768;6.724;2023-04-15T03:25:45;6.20;;;2.17;;
74793;SDS011;63320;50.768;6.724;2023-04-15T03:28:11;7.55;;;2.42;;
74793;SDS011;63320;50.768;6.724;2023-04-15T03:30:36;7.22;;;1.75;;
74793;SDS011;63320;50.768;6.724;2023-04-15T03:33:01;4.60;;;1.70;;
74793;SDS011;63320;50.768;6.724;2023-04-15T03:35:27;5.68;;;1.80;;
74793;SDS011;63320;50.768;6.724;2023-04-15T03:37:52;5.82;;;2.00;;
74793;SDS011;63320;50.768;6.724;2023-04-15T03:40:17;6.28;;;2.20;;
74793;SDS011;63320;50.768;6.724;2023-04-15T03:42:44;7.50;;;2.20;;
74793;SDS011;63320;50.768;6.724;2023-04-15T03:45:10;6.18;;;2.35;;
74793;SDS011;63320;50.768;6.724;2023-04-15T03:47:35;6.00;;;2.08;;
74793;SDS011;63320;50.768;6.724;2023-04-15T03:50:01;5.43;;;2.05;;
74793;SDS011;63320;50.768;6.724;2023-04-15T03:52:26;6.28;;;2.50;;
74793;SDS011;63320;50.768;6.724;2023-04-15T03:54:51;7.38;;;2.35;;
74793;SDS011;63320;50.768;6.724;2023-04-15T03:57:16;5.53;;;2.10;;
74793;SDS011;63320;50.768;6.724;2023-04-15T03:59:43;6.95;;;2.00;;
74793;SDS011;63320;50.768;6.724;2023-04-15T04:02:08;6.68;;;2.20;;
74793;SDS011;63320;50.768;6.724;2023-04-15T04:04:34;7.65;;;2.00;;
74793;SDS011;63320;50.768;6.724;2023-04-15T04:06:59;4.78;;;1.65;;
74793;SDS011;63320;50.768;6.724;2023-04-15T04:09:24;5.80;;;2.10;;
74793;SDS011;63320;50.768;6.724;2023-04-15T04:11:50;7.55;;;2.53;;
74793;SDS011;63320;50.768;6.724;2023-04-15T04:14:15;7.15;;;2.00;;
74793;SDS011;63320;50.768;6.724;2023-04-15T04:16:42;6.57;;;2.10;;
74793;SDS011;63320;50.768;6.724;2023-04-15T04:19:07;4.78;;;2.00;;
74793;SDS011;63320;50.768;6.724;2023-04-15T04:21:32;7.40;;;2.55;;
74793;SDS011;63320;50.768;6.724;2023-04-15T04:23:58;9.60;;;2.45;;
74793;SDS011;63320;50.768;6.724;2023-04-15T04:26:23;7.93;;;2.70;;
74793;SDS011;63320;50.768;6.724;2023-04-15T04:28:48;8.13;;;2.30;;
74793;SDS011;63320;50.768;6.724;2023-04-15T04:31:14;8.32;;;2.72;;
74793;SDS011;63320;50.768;6.724;2023-04-15T04:33:40;8.18;;;2.97;;
74793;SDS011;63320;50.768;6.724;2023-04-15T04:36:06;7.50;;;2.72;;
74793;SDS011;63320;50.768;6.724;2023-04-15T04:38:31;7.07;;;2.38;;
74793;SDS011;63320;50.768;6.724;2023-04-15T04:40:57;7.43;;;2.35;;
74793;SDS011;63320;50.768;6.724;2023-04-15T04:43:22;5.20;;;1.92;;
74793;SDS011;63320;50.768;6.724;2023-04-15T04:45:48;10.73;;;5.13;;
74793;SDS011;63320;50.768;6.724;2023-04-15T04:48:13;9.85;;;3.15;;
74793;SDS011;63320;50.768;6.724;2023-04-15T04:50:40;7.13;;;2.42;;
74793;SDS011;63320;50.768;6.724;2023-04-15T04:53:05;8.13;;;2.33;;
74793;SDS011;63320;50.768;6.724;2023-04-15T04:55:30;6.18;;;1.90;;
74793;SDS011;63320;50.768;6.724;2023-04-15T04:57:56;5.72;;;2.10;;
74793;SDS011;63320;50.768;6.724;2023-04-15T05:00:21;6.28;;;2.25;;
74793;SDS011;63320;50.768;6.724;2023-04-15T05:02:46;5.05;;;1.85;;
74793;SDS011;63320;50.768;6.724;2023-04-15T05:05:12;6.97;;;2.17;;
74793;SDS011;63320;50.768;6.724;2023-04-15T05:07:38;6.05;;;2.30;;
74793;SDS011;63320;50.768;6.724;2023-04-15T05:10:04;7.40;;;2.08;;
74793;SDS011;63320;50.768;6.724;2023-04-15T05:12:32;7.32;;;1.85;;
74793;SDS011;63320;50.768;6.724;2023-04-15T05:14:57;4.47;;;1.83;;
74793;SDS011;63320;50.768;6.724;2023-04-15T05:17:22;8.07;;;1.95;;
74793;SDS011;63320;50.768;6.724;2023-04-15T05:19:48;4.80;;;1.70;;
74793;SDS011;63320;50.768;6.724;2023-04-15T05:22:13;7.00;;;2.15;;
74793;SDS011;63320;50.768;6.724;2023-04-15T05:24:40;8.02;;;2.65;;
74793;SDS011;63320;50.768;6.724;2023-04-15T05:27:05;6.65;;;2.25;;
74793;SDS011;63320;50.768;6.724;2023-04-15T05:29:30;7.20;;;2.28;;
74793;SDS011;63320;50.768;6.724;2023-04-15T05:31:56;6.47;;;2.22;;
74793;SDS011;63320;50.768;6.724;2023-04-15T05:34:21;8.07;;;2.70;;
74793;SDS011;63320;50.768;6.724;2023-04-15T05:36:47;9.65;;;2.38;;
74793;SDS011;63320;50.768;6.724;2023-04-15T05:39:12;8.95;;;2.20;;
74793;SDS011;63320;50.768;6.724;2023-04-15T05:41:38;5.68;;;2.05;;
74793;SDS011;63320;50.768;6.724;2023-04-15T05:44:04;6.85;;;2.08;;
74793;SDS011;63320;50.768;6.724;2023-04-15T05:46:29;26.80;;;13.70;;
74793;SDS011;63320;50.768;6.724;2023-04-15T05:48:55;16.70;;;3.13;;
74793;SDS011;63320;50.768;6.724;2023-04-15T05:51:20;12.73;;;2.85;;
74793;SDS011;63320;50.768;6.724;2023-04-15T05:53:45;17.67;;;3.75;;
74793;SDS011;63320;50.768;6.724;2023-04-15T05:56:11;11.13;;;2.60;;
74793;SDS011;63320;50.768;6.724;2023-04-15T05:58:37;15.13;;;2.35;;
74793;SDS011;63320;50.768;6.724;2023-04-15T06:01:03;8.85;;;2.13;;
74793;SDS011;63320;50.768;6.724;2023-04-15T06:03:28;16.13;;;2.65;;
74793;SDS011;63320;50.768;6.724;2023-04-15T06:05:53;11.63;;;2.13;;
74793;SDS011;63320;50.768;6.724;2023-04-15T06:08:19;10.13;;;2.40;;
74793;SDS011;63320;50.768;6.724;2023-04-15T06:10:44;16.23;;;2.45;;
74793;SDS011;63320;50.768;6.724;2023-04-15T06:13:09;11.70;;;2.05;;
74793;SDS011;63320;50.768;6.724;2023-04-15T06:15:36;14.55;;;2.88;;
74793;SDS011;63320;50.768;6.724;2023-04-15T06:18:01;16.50;;;2.25;;
74793;SDS011;63320;50.768;6.724;2023-04-15T06:20:27;8.38;;;2.10;;
74793;SDS011;63320;50.768;6.724;2023-04-15T06:22:52;7.72;;;1.80;;
74793;SDS011;63320;50.768;6.724;2023-04-15T06:25:17;13.18;;;2.30;;
74793;SDS011;63320;50.768;6.724;2023-04-15T06:27:43;12.88;;;2.03;;
74793;SDS011;63320;50.768;6.724;2023-04-15T06:30:08;11.05;;;2.08;;
74793;SDS011;63320;50.768;6.724;2023-04-15T06:32:35;7.45;;;2.00;;
74793;SDS011;63320;50.768;6.724;2023-04-15T06:35:01;7.53;;;1.98;;
74793;SDS011;63320;50.768;6.724;2023-04-15T06:37:26;8.32;;;1.80;;
74793;SDS011;63320;50.768;6.724;2023-04-15T06:39:52;6.40;;;2.20;;
74793;SDS011;63320;50.768;6.724;2023-04-15T06:42:17;12.98;;;2.25;;
74793;SDS011;63320;50.768;6.724;2023-04-15T06:44:42;8.60;;;2.10;;
74793;SDS011;63320;50.768;6.724;2023-04-15T06:47:08;8.57;;;2.47;;
74793;SDS011;63320;50.768;6.724;2023-04-15T06:49:34;14.13;;;3.40;;
74793;SDS011;63320;50.768;6.724;2023-04-15T06:52:00;10.40;;;2.70;;
74793;SDS011;63320;50.768;6.724;2023-04-15T06:54:25;8.82;;;3.20;;
74793;SDS011;63320;50.768;6.724;2023-04-15T06:56:51;9.52;;;3.15;;
74793;SDS011;63320;50.768;6.724;2023-04-15T06:59:16;7.60;;;3.10;;
74793;SDS011;63320;50.768;6.724;2023-04-15T07:01:42;6.93;;;2.58;;
74793;SDS011;63320;50.768;6.724;2023-04-15T07:04:07;7.20;;;2.38;;
74793;SDS011;63320;50.768;6.724;2023-04-15T07:06:34;8.35;;;2.75;;
74793;SDS011;63320;50.768;6.724;2023-04-15T07:08:59;13.05;;;2.70;;
74793;SDS011;63320;50.768;6.724;2023-04-15T07:11:25;8.18;;;2.85;;
74793;SDS011;63320;50.768;6.724;2023-04-15T07:13:50;14.77;;;3.40;;
74793;SDS011;63320;50.768;6.724;2023-04-15T07:16:16;8.45;;;2.67;;
74793;SDS011;63320;50.768;6.724;2023-04-15T07:18:41;8.07;;;3.60;;
74793;SDS011;63320;50.768;6.724;2023-04-15T07:21:06;8.13;;;3.20;;
74793;SDS011;63320;50.768;6.724;2023-04-15T07:23:33;7.95;;;3.65;;
74793;SDS011;63320;50.768;6.724;2023-04-15T07:25:58;8.52;;;3.20;;
74793;SDS011;63320;50.768;6.724;2023-04-15T07:28:23;8.45;;;3.28;;
74793;SDS011;63320;50.768;6.724;2023-04-15T07:30:49;10.90;;;3.88;;
74793;SDS011;63320;50.768;6.724;2023-04-15T07:33:14;7.93;;;3.17;;
74793;SDS011;63320;50.768;6.724;2023-04-15T07:35:39;11.88;;;3.72;;
74793;SDS011;63320;50.768;6.724;2023-04-15T07:38:05;9.05;;;4.03;;
74793;SDS011;63320;50.768;6.724;2023-04-15T07:40:31;8.80;;;4.20;;
74793;SDS011;63320;50.768;6.724;2023-04-15T07:42:57;16.08;;;5.03;;
74793;SDS011;63320;50.768;6.724;2023-04-15T07:45:22;11.90;;;4.38;;
74793;SDS011;63320;50.768;6.724;2023-04-15T07:47:48;12.02;;;5.50;;
74793;SDS011;63320;50.768;6.724;2023-04-15T07:50:13;13.82;;;5.38;;
74793;SDS011;63320;50.768;6.724;2023-04-15T07:52:38;13.15;;;4.82;;
74793;SDS011;63320;50.768;6.724;2023-04-15T07:55:04;9.27;;;4.28;;
74793;SDS011;63320;50.768;6.724;2023-04-15T07:57:31;8.48;;;4.50;;
74793;SDS011;63320;50.768;6.724;2023-04-15T07:59:56;9.00;;;4.22;;
74793;SDS011;63320;50.768;6.724;2023-04-15T08:02:22;9.60;;;4.75;;
74793;SDS011;63320;50.768;6.724;2023-04-15T08:04:47;14.68;;;5.60;;
74793;SDS011;63320;50.768;6.724;2023-04-15T08:07:12;10.95;;;4.45;;
74793;SDS011;63320;50.768;6.724;2023-04-15T08:09:38;12.35;;;4.55;;
74793;SDS011;63320;50.768;6.724;2023-04-15T08:12:03;9.93;;;4.47;;
74793;SDS011;63320;50.768;6.724;2023-04-15T08:14:30;10.27;;;4.93;;
74793;SDS011;63320;50.768;6.724;2023-04-15T08:16:55;10.55;;;5.15;;
74793;SDS011;63320;50.768;6.724;2023-04-15T08:19:21;10.15;;;4.70;;
74793;SDS011;63320;50.768;6.724;2023-04-15T08:21:46;11.27;;;4.78;;
74793;SDS011;63320;50.768;6.724;2023-04-15T08:24:11;10.43;;;4.82;;
74793;SDS011;63320;50.768;6.724;2023-04-15T08:26:37;8.55;;;4.38;;
74793;SDS011;63320;50.768;6.724;2023-04-15T08:29:02;8.30;;;4.30;;
74793;SDS011;63320;50.768;6.724;2023-04-15T08:31:29;8.82;;;5.22;;
74793;SDS011;63320;50.768;6.724;2023-04-15T08:33:55;17.27;;;5.20;;
74793;SDS011;63320;50.768;6.724;2023-04-15T08:36:20;10.00;;;5.40;;
74793;SDS011;63320;50.768;6.724;2023-04-15T08:38:46;8.50;;;5.60;;
74793;SDS011;63320;50.768;6.724;2023-04-15T08:41:17;9.95;;;5.28;;
74793;SDS011;63320;50.768;6.724;2023-04-15T08:43:46;9.95;;;5.82;;
74793;SDS011;63320;50.768;6.724;2023-04-15T08:46:16;12.05;;;6.10;;
74793;SDS011;63320;50.768;6.724;2023-04-15T08:48:43;10.05;;;5.82;;
74793;SDS011;63320;50.768;6.724;2023-04-15T08:51:11;11.05;;;5.75;;
74793;SDS011;63320;50.768;6.724;2023-04-15T08:53:37;11.38;;;6.05;;
74793;SDS011;63320;50.768;6.724;2023-04-15T08:56:03;12.50;;;6.07;;
74793;SDS011;63320;50.768;6.724;2023-04-15T08:58:31;11.80;;;6.32;;
74793;SDS011;63320;50.768;6.724;2023-04-15T09:00:57;14.10;;;6.70;;
74793;SDS011;63320;50.768;6.724;2023-04-15T09:03:22;11.98;;;6.43;;
74793;SDS011;63320;50.768;6.724;2023-04-15T09:05:49;15.27;;;7.05;;
74793;SDS011;63320;50.768;6.724;2023-04-15T09:08:15;13.65;;;6.47;;
74793;SDS011;63320;50.768;6.724;2023-04-15T09:10:40;14.45;;;6.75;;
74793;SDS011;63320;50.768;6.724;2023-04-15T09:13:05;11.57;;;6.35;;
74793;SDS011;63320;50.768;6.724;2023-04-15T09:15:31;12.02;;;5.88;;
74793;SDS011;63320;50.768;6.724;2023-04-15T09:17:57;9.52;;;5.30;;
74793;SDS011;63320;50.768;6.724;2023-04-15T09:20:22;12.15;;;5.85;;
74793;SDS011;63320;50.768;6.724;2023-04-15T09:22:49;9.73;;;5.05;;
74793;SDS011;63320;50.768;6.724;2023-04-15T09:25:26;8.80;;;4.90;;
74793;SDS011;63320;50.768;6.724;2023-04-15T09:27:53;8.77;;;4.65;;
74793;SDS011;63320;50.768;6.724;2023-04-15T09:30:19;8.77;;;4.95;;
74793;SDS011;63320;50.768;6.724;2023-04-15T09:32:48;7.72;;;3.38;;
74793;SDS011;63320;50.768;6.724;2023-04-15T09:35:14;7.28;;;2.92;;
74793;SDS011;63320;50.768;6.724;2023-04-15T09:37:40;5.50;;;2.63;;
74793;SDS011;63320;50.768;6.724;2023-04-15T09:40:07;6.75;;;3.35;;
74793;SDS011;63320;50.768;6.724;2023-04-15T09:42:33;7.00;;;3.70;;
74793;SDS011;63320;50.768;6.724;2023-04-15T09:45:06;10.27;;;3.78;;
74793;SDS011;63320;50.768;6.724;2023-04-15T09:47:32;7.60;;;3.35;;
74793;SDS011;63320;50.768;6.724;2023-04-15T09:49:58;6.05;;;2.80;;
74793;SDS011;63320;50.768;6.724;2023-04-15T09:52:24;6.40;;;3.03;;
74793;SDS011;63320;50.768;6.724;2023-04-15T09:54:51;6.32;;;2.17;;
74793;SDS011;63320;50.768;6.724;2023-04-15T09:57:18;5.95;;;2.25;;
74793;SDS011;63320;50.768;6.724;2023-04-15T09:59:44;6.28;;;2.05;;
74793;SDS011;63320;50.768;6.724;2023-04-15T10:02:09;4.57;;;1.95;;
74793;SDS011;63320;50.768;6.724;2023-04-15T10:04:39;5.75;;;2.60;;
74793;SDS011;63320;50.768;6.724;2023-04-15T10:07:05;6.70;;;2.60;;
74793;SDS011;63320;50.768;6.724;2023-04-15T10:09:32;5.25;;;2.78;;
74793;SDS011;63320;50.768;6.724;2023-04-15T10:11:59;5.57;;;2.22;;
74793;SDS011;63320;50.768;6.724;2023-04-15T10:14:27;4.38;;;2.20;;
74793;SDS011;63320;50.768;6.724;2023-04-15T10:16:54;4.88;;;2.35;;
74793;SDS011;63320;50.768;6.724;2023-04-15T10:19:21;6.43;;;2.60;;
74793;SDS011;63320;50.768;6.724;2023-04-15T10:21:51;6.05;;;2.70;;
74793;SDS011;63320;50.768;6.724;2023-04-15T10:24:17;5.80;;;2.00;;
74793;SDS011;63320;50.768;6.724;2023-04-15T10:26:43;5.65;;;2.00;;
74793;SDS011;63320;50.768;6.724;2023-04-15T10:29:09;4.60;;;1.88;;
74793;SDS011;63320;50.768;6.724;2023-04-15T10:31:36;4.95;;;2.17;;
74793;SDS011;63320;50.768;6.724;2023-04-15T10:34:02;7.70;;;2.65;;
74793;SDS011;63320;50.768;6.724;2023-04-15T10:36:29;5.18;;;1.88;;
74793;SDS011;63320;50.768;6.724;2023-04-15T10:38:55;4.00;;;1.60;;
74793;SDS011;63320;50.768;6.724;2023-04-15T10:41:21;5.78;;;2.10;;
74793;SDS011;63320;50.768;6.724;2023-04-15T10:43:48;5.97;;;2.13;;
74793;SDS011;63320;50.768;6.724;2023-04-15T10:46:18;5.15;;;2.50;;
74793;SDS011;63320;50.768;6.724;2023-04-15T10:48:48;6.28;;;2.85;;
74793;SDS011;63320;50.768;6.724;2023-04-15T10:51:15;5.70;;;2.90;;
74793;SDS011;63320;50.768;6.724;2023-04-15T10:53:40;4.95;;;2.67;;
74793;SDS011;63320;50.768;6.724;2023-04-15T10:56:06;7.10;;;2.88;;
74793;SDS011;63320;50.768;6.724;2023-04-15T10:58:39;7.72;;;3.03;;
74793;SDS011;63320;50.768;6.724;2023-04-15T11:01:05;8.02;;;3.20;;
74793;SDS011;63320;50.768;6.724;2023-04-15T11:03:38;7.05;;;3.60;;
74793;SDS011;63320;50.768;6.724;2023-04-15T11:06:07;8.07;;;4.00;;
74793;SDS011;63320;50.768;6.724;2023-04-15T11:08:52;21.10;;;13.77;;
74793;SDS011;63320;50.768;6.724;2023-04-15T11:11:19;19.02;;;15.35;;
74793;SDS011;63320;50.768;6.724;2023-04-15T11:13:46;13.70;;;8.23;;
74793;SDS011;63320;50.768;6.724;2023-04-15T11:16:13;8.98;;;4.68;;
74793;SDS011;63320;50.768;6.724;2023-04-15T11:18:38;11.30;;;5.18;;
74793;SDS011;63320;50.768;6.724;2023-04-15T11:21:04;13.43;;;5.25;;
74793;SDS011;63320;50.768;6.724;2023-04-15T11:23:36;9.35;;;3.50;;
74793;SDS011;63320;50.768;6.724;2023-04-15T11:26:03;8.95;;;3.67;;
74793;SDS011;63320;50.768;6.724;2023-04-15T11:28:31;8.73;;;4.03;;
74793;SDS011;63320;50.768;6.724;2023-04-15T11:30:56;8.20;;;4.75;;
74793;SDS011;63320;50.768;6.724;2023-04-15T11:33:22;9.88;;;4.88;;
74793;SDS011;63320;50.768;6.724;2023-04-15T11:35:48;11.15;;;5.38;;
74793;SDS011;63320;50.768;6.724;2023-04-15T11:38:15;12.90;;;5.75;;
74793;SDS011;63320;50.768;6.724;2023-04-15T11:40:41;13.77;;;5.70;;
74793;SDS011;63320;50.768;6.724;2023-04-15T11:43:08;13.52;;;6.68;;
74793;SDS011;63320;50.768;6.724;2023-04-15T11:45:34;16.17;;;10.75;;
74793;SDS011;63320;50.768;6.724;2023-04-15T11:48:04;13.98;;;8.20;;
74793;SDS011;63320;50.768;6.724;2023-04-15T11:50:30;8.00;;;4.45;;
74793;SDS011;63320;50.768;6.724;2023-04-15T11:52:56;8.00;;;4.28;;
74793;SDS011;63320;50.768;6.724;2023-04-15T11:55:22;8.10;;;4.70;;
74793;SDS011;63320;50.768;6.724;2023-04-15T11:58:04;7.38;;;4.40;;
74793;SDS011;63320;50.768;6.724;2023-04-15T12:00:30;9.75;;;4.65;;
74793;SDS011;63320;50.768;6.724;2023-04-15T12:03:10;7.90;;;4.18;;
74793;SDS011;63320;50.768;6.724;2023-04-15T12:05:36;5.28;;;2.95;;
74793;SDS011;63320;50.768;6.724;2023-04-15T12:08:01;6.38;;;3.42;;
74793;SDS011;63320;50.768;6.724;2023-04-15T12:10:26;12.27;;;7.15;;
74793;SDS011;63320;50.768;6.724;2023-04-15T12:12:53;19.55;;;11.05;;
74793;SDS011;63320;50.768;6.724;2023-04-15T12:15:20;8.90;;;7.07;;
74793;SDS011;63320;50.768;6.724;2023-04-15T12:17:46;13.02;;;8.02;;
74793;SDS011;63320;50.768;6.724;2023-04-15T12:20:11;9.55;;;7.25;;
74793;SDS011;63320;50.768;6.724;2023-04-15T12:22:36;10.38;;;7.40;;
74793;SDS011;63320;50.768;6.724;2023-04-15T12:25:02;11.52;;;8.10;;
74793;SDS011;63320;50.768;6.724;2023-04-15T12:27:28;12.68;;;8.52;;
74793;SDS011;63320;50.768;6.724;2023-04-15T12:30:03;9.38;;;7.13;;
74793;SDS011;63320;50.768;6.724;2023-04-15T12:32:29;10.75;;;7.55;;
74793;SDS011;63320;50.768;6.724;2023-04-15T12:34:58;16.10;;;10.60;;
74793;SDS011;63320;50.768;6.724;2023-04-15T12:37:24;10.68;;;5.88;;
74793;SDS011;63320;50.768;6.724;2023-04-15T12:39:50;14.20;;;9.00;;
74793;SDS011;63320;50.768;6.724;2023-04-15T12:42:16;12.57;;;9.02;;
74793;SDS011;63320;50.768;6.724;2023-04-15T12:44:42;17.92;;;9.63;;
74793;SDS011;63320;50.768;6.724;2023-04-15T12:47:09;12.43;;;10.05;;
74793;SDS011;63320;50.768;6.724;2023-04-15T12:49:35;11.90;;;9.15;;
74793;SDS011;63320;50.768;6.724;2023-04-15T12:52:01;12.50;;;9.65;;
74793;SDS011;63320;50.768;6.724;2023-04-15T12:54:28;13.77;;;10.15;;
74793;SDS011;63320;50.768;6.724;2023-04-15T12:56:54;13.75;;;10.18;;
74793;SDS011;63320;50.768;6.724;2023-04-15T12:59:20;17.85;;;12.68;;
74793;SDS011;63320;50.768;6.724;2023-04-15T13:01:45;17.05;;;12.52;;
74793;SDS011;63320;50.768;6.724;2023-04-15T13:04:13;24.15;;;17.05;;
74793;SDS011;63320;50.768;6.724;2023-04-15T13:06:38;18.08;;;13.05;;
74793;SDS011;63320;50.768;6.724;2023-04-15T13:09:04;15.00;;;11.98;;
74793;SDS011;63320;50.768;6.724;2023-04-15T13:11:29;15.70;;;11.68;;
74793;SDS011;63320;50.768;6.724;2023-04-15T13:13:55;15.90;;;12.18;;
74793;SDS011;63320;50.768;6.724;2023-04-15T13:16:21;15.73;;;11.55;;
74793;SDS011;63320;50.768;6.724;2023-04-15T13:18:46;16.20;;;12.20;;
74793;SDS011;63320;50.768;6.724;2023-04-15T13:21:15;14.25;;;9.98;;
74793;SDS011;63320;50.768;6.724;2023-04-15T13:23:41;14.25;;;8.40;;
74793;SDS011;63320;50.768;6.724;2023-04-15T13:26:07;13.35;;;8.52;;
74793;SDS011;63320;50.768;6.724;2023-04-15T13:28:32;11.90;;;7.47;;
74793;SDS011;63320;50.768;6.724;2023-04-15T13:30:58;11.70;;;6.20;;
74793;SDS011;63320;50.768;6.724;2023-04-15T13:33:23;8.98;;;4.93;;
74793;SDS011;63320;50.768;6.724;2023-04-15T13:35:48;10.00;;;4.95;;
74793;SDS011;63320;50.768;6.724;2023-04-15T13:38:15;9.18;;;5.13;;
74793;SDS011;63320;50.768;6.724;2023-04-15T13:40:40;8.80;;;4.68;;
74793;SDS011;63320;50.768;6.724;2023-04-15T13:43:06;10.18;;;6.07;;
74793;SDS011;63320;50.768;6.724;2023-04-15T13:45:31;8.30;;;5.57;;
74793;SDS011;63320;50.768;6.724;2023-04-15T13:47:56;11.23;;;5.60;;
74793;SDS011;63320;50.768;6.724;2023-04-15T13:50:22;9.23;;;5.65;;
74793;SDS011;63320;50.768;6.724;2023-04-15T13:52:47;12.07;;;6.00;;
74793;SDS011;63320;50.768;6.724;2023-04-15T13:55:14;8.75;;;5.18;;
74793;SDS011;63320;50.768;6.724;2023-04-15T13:57:39;9.35;;;5.22;;
74793;SDS011;63320;50.768;6.724;2023-04-15T14:00:05;9.27;;;5.40;;
74793;SDS011;63320;50.768;6.724;2023-04-15T14:02:31;8.52;;;5.20;;
74793;SDS011;63320;50.768;6.724;2023-04-15T14:04:57;7.85;;;5.10;;
74793;SDS011;63320;50.768;6.724;2023-04-15T14:07:22;8.43;;;4.75;;
74793;SDS011;63320;50.768;6.724;2023-04-15T14:09:48;8.73;;;5.00;;
74793;SDS011;63320;50.768;6.724;2023-04-15T14:12:14;7.95;;;4.80;;
74793;SDS011;63320;50.768;6.724;2023-04-15T14:14:40;8.18;;;4.75;;
74793;SDS011;63320;50.768;6.724;2023-04-15T14:17:05;7.20;;;4.28;;
74793;SDS011;63320;50.768;6.724;2023-04-15T14:19:31;7.32;;;4.10;;
74793;SDS011;63320;50.768;6.724;2023-04-15T14:21:57;8.05;;;4.07;;
74793;SDS011;63320;50.768;6.724;2023-04-15T14:24:22;7.10;;;3.92;;
74793;SDS011;63320;50.768;6.724;2023-04-15T14:26:48;8.25;;;4.30;;
74793;SDS011;63320;50.768;6.724;2023-04-15T14:29:14;6.95;;;3.90;;
74793;SDS011;63320;50.768;6.724;2023-04-15T14:31:40;8.40;;;3.60;;
74793;SDS011;63320;50.768;6.724;2023-04-15T14:34:05;5.90;;;3.17;;
74793;SDS011;63320;50.768;6.724;2023-04-15T14:36:30;8.38;;;3.65;;